Time;durP1;ratioP1;P1;durP2;ratioP2;P2;SDS_P1;SDS_P2;PMS_P1;PMS_P2;Temp;Humidity;BMP_temperature;BMP_pressure;BME280_temperature;BME280_humidity;BME280_pressure;Samples;Min_cycle;Max_cycle;Signal;HPM_P1;HPM_P2
2023/07/31 03:59:35;;;;;;;2.60;1.80;;;23.70;94.40;;;;;;6224715;28;82266;-70
2023/07/31 04:02:36;;;;;;;3.88;1.80;;;23.70;94.40;;;;;;6248566;28;83984;-70
2023/07/31 04:05:40;;;;;;;4.55;2.20;;;23.70;94.20;;;;;;6232873;28;83302;-70
2023/07/31 04:08:42;;;;;;;4.65;2.30;;;23.70;94.20;;;;;;6234249;28;83982;-70
2023/07/31 04:11:44;;;;;;;2.17;1.67;;;23.70;94.10;;;;;;6228052;28;84272;-70
2023/07/31 04:14:47;;;;;;;3.90;1.63;;;23.70;94.00;;;;;;6225337;28;85264;-70
2023/07/31 04:17:49;;;;;;;2.45;1.60;;;23.70;93.90;;;;;;6231024;28;84320;-70
2023/07/31 04:20:51;;;;;;;4.50;2.22;;;23.60;93.90;;;;;;6231012;28;83311;-71
2023/07/31 04:23:55;;;;;;;1.80;1.48;;;23.60;93.90;;;;;;6226326;28;83952;-70
2023/07/31 04:26:57;;;;;;;3.67;2.00;;;23.60;94.30;;;;;;6233877;27;84168;-70
2023/07/31 04:30:00;;;;;;;2.92;1.80;;;23.60;94.60;;;;;;6234355;28;83991;-70
2023/07/31 04:33:02;;;;;;;2.67;1.67;;;23.60;94.70;;;;;;6243698;28;84079;-70
2023/07/31 04:36:05;;;;;;;3.17;1.77;;;23.60;94.70;;;;;;6243386;28;83192;-70
2023/07/31 04:39:07;;;;;;;3.20;1.73;;;23.70;94.70;;;;;;6233778;28;84024;-70
2023/07/31 04:42:09;;;;;;;4.40;1.83;;;23.70;94.40;;;;;;6235024;28;84263;-70
2023/07/31 04:45:13;;;;;;;2.72;1.73;;;23.70;93.90;;;;;;6216091;28;85405;-70
2023/07/31 04:48:15;;;;;;;2.75;1.80;;;23.70;93.80;;;;;;6233014;28;84055;-70
2023/07/31 04:51:17;;;;;;;2.53;1.75;;;23.70;93.50;;;;;;6228143;28;84010;-71
2023/07/31 04:54:19;;;;;;;3.42;2.10;;;23.70;93.40;;;;;;6233828;28;84267;-71
2023/07/31 04:57:20;;;;;;;4.30;1.98;;;23.70;93.20;;;;;;6234010;28;84039;-70
2023/07/31 05:00:24;;;;;;;5.53;2.42;;;23.70;93.00;;;;;;6233919;28;82827;-70
2023/07/31 05:03:26;;;;;;;5.47;2.45;;;23.70;93.00;;;;;;6233933;28;82912;-71
2023/07/31 05:06:28;;;;;;;2.92;1.90;;;23.70;92.80;;;;;;6235984;28;83353;-70
2023/07/31 05:09:30;;;;;;;2.38;1.60;;;23.70;92.60;;;;;;6234902;28;84315;-70
2023/07/31 05:12:32;;;;;;;2.83;1.58;;;23.70;92.50;;;;;;6234734;28;83205;-71
2023/07/31 05:15:35;;;;;;;2.35;1.60;;;23.70;92.40;;;;;;6232065;28;84953;-70
2023/07/31 05:18:37;;;;;;;2.88;1.83;;;23.70;92.60;;;;;;6233626;28;84108;-70
2023/07/31 05:21:39;;;;;;;4.78;2.17;;;23.70;93.00;;;;;;6240364;28;84076;-71
2023/07/31 05:24:41;;;;;;;3.70;1.98;;;23.70;93.20;;;;;;6217062;28;84038;-70
2023/07/31 05:27:43;;;;;;;2.80;1.75;;;23.70;93.10;;;;;;6241471;28;82907;-71
2023/07/31 05:30:46;;;;;;;2.38;1.60;;;23.70;93.30;;;;;;6244708;27;84056;-70
2023/07/31 05:33:49;;;;;;;2.30;1.80;;;23.80;93.10;;;;;;6222916;27;84012;-70
2023/07/31 05:36:51;;;;;;;2.17;1.58;;;23.80;92.80;;;;;;6217578;28;83609;-70
2023/07/31 05:39:53;;;;;;;6.00;2.72;;;23.80;92.70;;;;;;6228745;27;84630;-70
2023/07/31 05:42:55;;;;;;;4.25;2.08;;;23.80;92.80;;;;;;6221466;28;83978;-70
2023/07/31 05:45:58;;;;;;;3.90;1.80;;;23.70;92.70;;;;;;6235035;28;84933;-70
2023/07/31 05:49:00;;;;;;;3.95;1.80;;;23.70;92.80;;;;;;6231984;28;83989;-70
2023/07/31 05:52:03;;;;;;;5.75;2.15;;;23.80;93.00;;;;;;6233529;28;83951;-70
2023/07/31 05:55:05;;;;;;;3.88;2.22;;;23.80;92.90;;;;;;6233266;28;84082;-70
2023/07/31 05:58:07;;;;;;;2.75;1.75;;;23.80;92.80;;;;;;6245860;28;82859;-71
2023/07/31 06:01:11;;;;;;;3.03;1.88;;;23.80;92.80;;;;;;6232200;28;84293;-70
2023/07/31 06:04:13;;;;;;;2.83;1.70;;;23.80;92.90;;;;;;6231234;28;82917;-71
2023/07/31 06:07:15;;;;;;;3.88;2.10;;;23.70;93.00;;;;;;6229745;28;83604;-70
2023/07/31 06:10:17;;;;;;;3.13;1.55;;;23.80;93.00;;;;;;6244761;27;83759;-71
2023/07/31 06:13:19;;;;;;;2.63;1.75;;;23.80;93.30;;;;;;6243765;28;83493;-71
2023/07/31 06:16:22;;;;;;;3.20;2.00;;;23.80;93.40;;;;;;6241285;27;84890;-70
2023/07/31 06:19:24;;;;;;;3.42;1.98;;;23.80;93.60;;;;;;6237544;27;83995;-71
2023/07/31 06:22:26;;;;;;;3.17;1.98;;;23.80;93.60;;;;;;6225064;28;83051;-71
2023/07/31 06:25:28;;;;;;;4.28;2.10;;;23.80;93.50;;;;;;6216351;28;85465;-71
2023/07/31 06:28:30;;;;;;;5.88;2.58;;;23.80;93.40;;;;;;6233509;28;84049;-71
2023/07/31 06:31:34;;;;;;;3.08;1.95;;;23.80;93.40;;;;;;6234092;28;83958;-70
2023/07/31 06:34:36;;;;;;;2.33;1.75;;;23.80;93.50;;;;;;6233284;28;84088;-71
2023/07/31 06:37:40;;;;;;;2.65;1.70;;;23.80;93.60;;;;;;6235848;28;83175;-70
2023/07/31 06:40:41;;;;;;;2.90;1.88;;;23.90;93.60;;;;;;6225283;28;83985;-71
2023/07/31 06:43:43;;;;;;;3.05;1.90;;;23.80;93.50;;;;;;6238151;28;83186;-71
2023/07/31 06:46:47;;;;;;;3.75;2.05;;;23.90;93.60;;;;;;6237047;28;85287;-71
2023/07/31 06:49:49;;;;;;;2.97;1.90;;;23.80;93.60;;;;;;6236890;28;85181;-71
2023/07/31 06:52:51;;;;;;;3.15;1.90;;;23.80;93.60;;;;;;6226776;28;84009;-71
2023/07/31 06:55:53;;;;;;;4.07;2.25;;;23.90;93.50;;;;;;6239011;28;84024;-71
2023/07/31 06:58:55;;;;;;;4.30;2.25;;;23.90;93.40;;;;;;6228230;28;83219;-71
2023/07/31 07:01:58;;;;;;;2.72;1.70;;;23.80;93.00;;;;;;6227120;27;83905;-70
2023/07/31 07:05:00;;;;;;;2.55;1.75;;;23.90;92.70;;;;;;6230245;28;84185;-71
2023/07/31 07:08:02;;;;;;;2.10;1.50;;;23.80;92.50;;;;;;6227975;28;83303;-70
2023/07/31 07:11:04;;;;;;;4.15;2.22;;;23.80;92.30;;;;;;6234808;28;84359;-70
2023/07/31 07:14:06;;;;;;;4.15;2.40;;;23.90;92.40;;;;;;6233079;28;83853;-70
2023/07/31 07:17:09;;;;;;;5.57;2.53;;;23.90;92.40;;;;;;6237507;27;85023;-70
2023/07/31 07:20:12;;;;;;;3.38;1.98;;;23.90;92.40;;;;;;6235412;28;84032;-71
2023/07/31 07:23:14;;;;;;;3.28;1.75;;;23.90;92.40;;;;;;6243779;27;84185;-71
2023/07/31 07:26:16;;;;;;;2.88;1.55;;;23.80;92.40;;;;;;6235647;28;84364;-71
2023/07/31 07:29:18;;;;;;;3.38;1.83;;;23.90;92.60;;;;;;6246064;28;83947;-70
2023/07/31 07:32:21;;;;;;;2.88;1.90;;;23.90;92.70;;;;;;6239834;28;84003;-71
2023/07/31 07:35:23;;;;;;;2.75;1.70;;;23.80;92.70;;;;;;6231567;28;84092;-70
2023/07/31 07:38:25;;;;;;;4.28;2.28;;;23.80;92.60;;;;;;6230212;28;82177;-70
2023/07/31 07:41:27;;;;;;;8.93;3.38;;;23.90;92.80;;;;;;6220284;28;84100;-70
2023/07/31 07:44:30;;;;;;;3.78;1.98;;;23.90;92.80;;;;;;6236994;28;84373;-71
2023/07/31 07:47:33;;;;;;;2.22;1.60;;;23.90;92.80;;;;;;6216008;28;83850;-71
2023/07/31 07:50:35;;;;;;;2.03;1.52;;;23.90;92.80;;;;;;6246136;28;83994;-70
2023/07/31 07:53:37;;;;;;;2.60;1.67;;;23.90;92.50;;;;;;6235706;28;84155;-70
2023/07/31 07:56:39;;;;;;;2.45;1.75;;;23.90;92.30;;;;;;6234840;28;84134;-71
2023/07/31 07:59:41;;;;;;;3.20;1.88;;;23.90;92.20;;;;;;6217144;28;82897;-70
2023/07/31 08:02:44;;;;;;;2.55;1.70;;;23.90;92.20;;;;;;6228018;28;83919;-70
2023/07/31 08:05:46;;;;;;;3.30;2.00;;;23.90;92.10;;;;;;6235406;28;83938;-70
2023/07/31 08:08:48;;;;;;;6.60;2.80;;;23.90;92.20;;;;;;6236087;28;83232;-70
2023/07/31 08:11:50;;;;;;;3.30;1.92;;;23.90;92.20;;;;;;6239556;28;84470;-70
2023/07/31 08:14:52;;;;;;;3.35;2.10;;;23.90;92.20;;;;;;6242369;28;84164;-70
2023/07/31 08:17:55;;;;;;;2.30;1.73;;;23.90;92.30;;;;;;6232152;28;85073;-70
2023/07/31 08:20:57;;;;;;;3.00;1.90;;;23.90;92.30;;;;;;6217681;28;84000;-70
2023/07/31 08:24:00;;;;;;;6.93;1.90;;;23.90;92.30;;;;;;6234234;28;83906;-70
2023/07/31 08:27:02;;;;;;;4.15;2.13;;;23.90;92.30;;;;;;6231387;28;83928;-70
2023/07/31 08:30:04;;;;;;;5.82;2.45;;;23.90;92.20;;;;;;6234675;28;84059;-70
2023/07/31 08:33:08;;;;;;;3.58;1.92;;;23.90;92.20;;;;;;6223635;28;83994;-70
2023/07/31 08:36:10;;;;;;;4.43;2.20;;;23.90;92.30;;;;;;6223505;28;84594;-71
2023/07/31 08:39:12;;;;;;;2.83;1.88;;;23.90;92.30;;;;;;6235513;28;83662;-70
2023/07/31 08:42:13;;;;;;;2.72;1.80;;;23.90;92.20;;;;;;6234957;28;84118;-70
2023/07/31 08:45:17;;;;;;;2.65;1.75;;;23.90;92.20;;;;;;6248404;28;83930;-70
2023/07/31 08:48:21;;;;;;;2.50;1.85;;;23.90;92.00;;;;;;6247179;27;85093;-70
2023/07/31 08:51:23;;;;;;;3.72;2.00;;;23.90;91.80;;;;;;6232286;28;84172;-71
2023/07/31 08:54:29;;;;;;;4.32;2.28;;;23.90;91.70;;;;;;6246910;27;84067;-70
2023/07/31 08:57:31;;;;;;;5.30;2.70;;;23.80;91.80;;;;;;6238399;28;84206;-70
2023/07/31 09:00:34;;;;;;;3.38;2.05;;;23.90;91.70;;;;;;6246577;27;84796;-70
2023/07/31 09:03:38;;;;;;;3.47;2.10;;;23.90;91.70;;;;;;6231720;28;83932;-70
2023/07/31 09:06:41;;;;;;;6.22;2.40;;;23.90;91.60;;;;;;6234229;28;82980;-70
2023/07/31 09:09:43;;;;;;;3.42;2.05;;;23.90;91.60;;;;;;6247111;28;83503;-70
2023/07/31 09:12:46;;;;;;;2.30;1.70;;;23.90;91.40;;;;;;6241603;28;83919;-70
2023/07/31 09:15:48;;;;;;;5.70;2.47;;;23.90;91.90;;;;;;6238130;28;84007;-70
2023/07/31 09:18:58;;;;;;;5.82;2.75;;;23.90;91.50;;;;;;6230568;28;84938;-70
2023/07/31 09:22:00;;;;;;;4.07;2.10;;;23.90;91.60;;;;;;6228607;28;84234;-70
2023/07/31 09:25:16;;;;;;;2.88;1.98;;;23.90;91.60;;;;;;6235130;28;84003;-67
2023/07/31 09:28:18;;;;;;;4.05;2.10;;;23.90;91.80;;;;;;6226251;28;84053;-68
2023/07/31 09:31:33;;;;;;;3.10;1.90;;;23.90;91.80;;;;;;6246237;28;84787;-70
2023/07/31 09:34:39;;;;;;;3.00;2.03;;;23.80;91.90;;;;;;6222176;28;84103;-70
2023/07/31 09:37:41;;;;;;;2.55;1.70;;;23.90;91.90;;;;;;6223119;28;84304;-70
2023/07/31 09:40:45;;;;;;;2.25;1.73;;;23.90;91.90;;;;;;6220708;28;83295;-70
2023/07/31 09:43:54;;;;;;;2.47;1.80;;;23.90;91.90;;;;;;6233600;28;83880;-70
2023/07/31 09:46:56;;;;;;;2.05;1.77;;;23.90;91.90;;;;;;6229546;28;84028;-70
2023/07/31 09:49:59;;;;;;;3.50;2.00;;;23.90;92.00;;;;;;6220057;28;84985;-70
2023/07/31 09:53:01;;;;;;;3.70;2.17;;;23.90;92.10;;;;;;6227430;28;82740;-70
2023/07/31 09:56:04;;;;;;;3.45;2.08;;;23.90;92.10;;;;;;6232694;28;83171;-70
2023/07/31 09:59:06;;;;;;;4.97;2.60;;;23.90;92.10;;;;;;6246016;28;83930;-70
2023/07/31 10:02:14;;;;;;;3.15;2.08;;;23.90;92.10;;;;;;6240977;28;84213;-70
2023/07/31 10:05:18;;;;;;;3.05;1.88;;;23.90;92.10;;;;;;6210322;28;84096;-70
2023/07/31 10:08:22;;;;;;;2.80;1.80;;;23.90;92.50;;;;;;6225308;28;86099;-70
2023/07/31 10:11:28;;;;;;;2.60;2.00;;;23.90;92.10;;;;;;6236604;28;83619;-70
2023/07/31 10:14:31;;;;;;;3.60;2.17;;;23.90;92.10;;;;;;6230292;28;83990;-70
2023/07/31 10:17:35;;;;;;;2.42;1.90;;;23.90;92.20;;;;;;6233643;28;83831;-70
2023/07/31 10:20:39;;;;;;;6.15;3.10;;;23.90;92.10;;;;;;6232835;28;84935;-70
2023/07/31 10:23:43;;;;;;;5.15;2.65;;;23.90;92.10;;;;;;6249077;28;83988;-70
2023/07/31 10:26:48;;;;;;;2.70;1.75;;;23.90;92.10;;;;;;6238473;28;84016;-70
2023/07/31 10:29:51;;;;;;;4.75;2.42;;;23.90;92.60;;;;;;6225224;28;84171;-70
2023/07/31 10:32:54;;;;;;;2.92;2.00;;;23.90;92.20;;;;;;6248136;28;84097;-70
2023/07/31 10:36:16;;;;;;;3.42;2.17;;;23.90;92.20;;;;;;6230250;28;84332;-70
2023/07/31 10:39:39;;;;;;;4.07;2.30;;;23.90;92.30;;;;;;6243407;28;82984;-70
2023/07/31 10:42:48;;;;;;;2.72;2.00;;;23.90;92.30;;;;;;6225492;28;82150;-70
2023/07/31 10:45:50;;;;;;;2.75;2.17;;;23.90;92.30;;;;;;6234271;28;84138;-70
2023/07/31 10:48:59;;;;;;;3.55;2.33;;;23.90;92.30;;;;;;6237277;28;84162;-70
2023/07/31 10:52:04;;;;;;;3.50;2.13;;;23.90;92.30;;;;;;6236606;28;85008;-70
2023/07/31 10:55:27;;;;;;;3.30;2.00;;;23.90;92.40;;;;;;6243917;28;82942;-70
2023/07/31 10:58:31;;;;;;;2.63;2.00;;;23.90;92.40;;;;;;6237576;27;84176;-70
2023/07/31 11:01:51;;;;;;;3.03;2.10;;;23.90;92.40;;;;;;6244198;28;81967;-70
2023/07/31 11:05:07;;;;;;;2.95;2.20;;;23.90;92.30;;;;;;6237327;27;84436;-70
2023/07/31 11:08:16;;;;;;;2.80;2.00;;;23.90;92.30;;;;;;6244353;27;84702;-71
2023/07/31 11:11:19;;;;;;;3.30;2.00;;;23.90;92.20;;;;;;6236110;28;82944;-71
2023/07/31 11:14:21;;;;;;;2.90;1.90;;;23.90;92.10;;;;;;6236100;28;83275;-70
2023/07/31 11:17:26;;;;;;;2.75;1.83;;;23.90;92.10;;;;;;6236606;28;83886;-70
2023/07/31 11:20:30;;;;;;;10.10;3.78;;;23.90;92.10;;;;;;6233924;28;84344;-71
2023/07/31 11:23:34;;;;;;;3.22;2.00;;;23.90;92.00;;;;;;6235561;28;84935;-70
2023/07/31 11:26:36;;;;;;;3.67;2.00;;;23.90;92.00;;;;;;6248293;28;84937;-70
2023/07/31 11:29:38;;;;;;;3.13;2.05;;;23.90;91.80;;;;;;6227843;27;84291;-70
2023/07/31 11:32:41;;;;;;;3.00;1.88;;;23.90;91.80;;;;;;6244490;28;84110;-70
2023/07/31 11:35:45;;;;;;;2.65;1.95;;;23.90;91.80;;;;;;6222506;28;82908;-70
2023/07/31 11:38:48;;;;;;;2.40;1.60;;;23.90;91.90;;;;;;6237172;28;83958;-70
2023/07/31 11:41:50;;;;;;;1.90;1.70;;;23.90;91.80;;;;;;6237857;28;84055;-70
2023/07/31 11:44:52;;;;;;;4.60;2.65;;;23.90;91.80;;;;;;6236584;28;83162;-70
2023/07/31 11:47:56;;;;;;;4.78;2.47;;;24.00;91.40;;;;;;6236255;28;84325;-70
2023/07/31 11:51:00;;;;;;;3.00;2.15;;;23.90;91.80;;;;;;6226081;28;83935;-70
2023/07/31 11:54:04;;;;;;;3.85;2.17;;;23.90;91.70;;;;;;6225504;28;85021;-70
2023/07/31 11:57:07;;;;;;;3.33;2.17;;;23.90;91.70;;;;;;6243834;28;84030;-70
2023/07/31 12:00:13;;;;;;;3.60;2.30;;;23.90;91.80;;;;;;6256212;27;84552;-70
2023/07/31 12:03:15;;;;;;;4.10;2.22;;;23.90;91.80;;;;;;6233700;27;84627;-70
2023/07/31 12:06:17;;;;;;;2.42;1.83;;;23.90;91.80;;;;;;6245702;27;83237;-70
2023/07/31 12:09:20;;;;;;;3.35;2.13;;;23.90;91.70;;;;;;6239714;27;83291;-70
2023/07/31 12:12:27;;;;;;;2.58;1.90;;;23.90;91.80;;;;;;6255400;27;83883;-70
2023/07/31 12:15:38;;;;;;;2.30;1.83;;;23.90;91.70;;;;;;6239753;28;82884;-70
2023/07/31 12:18:40;;;;;;;3.25;1.95;;;23.90;91.60;;;;;;6230268;28;84055;-70
2023/07/31 12:21:42;;;;;;;2.78;1.80;;;23.90;91.60;;;;;;6221801;28;83736;-70
2023/07/31 12:24:45;;;;;;;4.20;2.40;;;23.90;91.60;;;;;;6218986;28;84997;-70
2023/07/31 12:27:47;;;;;;;3.38;2.00;;;23.90;91.60;;;;;;6212584;28;84001;-70
2023/07/31 12:30:50;;;;;;;3.35;2.03;;;23.90;91.70;;;;;;6257813;27;83235;-69
2023/07/31 12:33:52;;;;;;;3.63;2.13;;;23.90;91.60;;;;;;6244462;27;84022;-70
2023/07/31 12:36:55;;;;;;;2.92;2.03;;;23.90;91.70;;;;;;6243910;27;83204;-70
2023/07/31 12:40:03;;;;;;;6.50;2.80;;;23.90;91.70;;;;;;6224847;28;82889;-70
2023/07/31 12:43:05;;;;;;;4.43;2.47;;;23.90;91.60;;;;;;6225176;28;83934;-70
2023/07/31 12:46:08;;;;;;;3.78;2.10;;;23.90;91.70;;;;;;6223883;28;83414;-70
2023/07/31 12:49:10;;;;;;;2.70;2.08;;;23.90;91.70;;;;;;6235134;28;84172;-70
2023/07/31 12:52:12;;;;;;;2.78;2.15;;;23.90;91.50;;;;;;6235555;28;83008;-70
2023/07/31 12:55:16;;;;;;;3.33;2.20;;;23.90;91.40;;;;;;6225797;28;85184;-70
2023/07/31 12:58:18;;;;;;;3.85;2.30;;;23.90;91.60;;;;;;6229319;28;82915;-70
2023/07/31 13:01:20;;;;;;;3.15;2.22;;;23.90;91.60;;;;;;6234627;28;84031;-70
2023/07/31 13:04:22;;;;;;;3.75;2.22;;;23.90;91.50;;;;;;6232456;28;84047;-70
2023/07/31 13:07:25;;;;;;;6.55;2.78;;;23.90;91.40;;;;;;6223997;28;84029;-69
2023/07/31 13:10:29;;;;;;;5.75;2.67;;;23.90;91.20;;;;;;6231283;28;83992;-70
2023/07/31 13:13:31;;;;;;;2.92;2.22;;;23.90;91.30;;;;;;6235268;28;84064;-69
2023/07/31 13:16:33;;;;;;;2.47;2.10;;;24.00;91.20;;;;;;6234108;28;82328;-70
2023/07/31 13:19:35;;;;;;;3.45;2.22;;;23.90;91.00;;;;;;6234347;28;84132;-70
2023/07/31 13:22:37;;;;;;;3.00;2.00;;;24.00;91.10;;;;;;6228507;28;84170;-70
2023/07/31 13:25:40;;;;;;;3.13;2.15;;;23.90;91.20;;;;;;6240572;28;85259;-70
2023/07/31 13:28:42;;;;;;;3.20;2.22;;;24.00;91.30;;;;;;6251332;27;84366;-70
2023/07/31 13:31:44;;;;;;;2.80;2.13;;;24.00;91.40;;;;;;6253128;28;84225;-70
2023/07/31 13:34:47;;;;;;;2.78;2.38;;;24.00;91.40;;;;;;6244525;27;84111;-70
2023/07/31 13:37:49;;;;;;;4.65;2.67;;;24.00;91.60;;;;;;6242985;27;84559;-70
2023/07/31 13:40:52;;;;;;;2.22;1.90;;;24.00;91.60;;;;;;6221221;27;82919;-70
2023/07/31 13:43:54;;;;;;;2.72;2.00;;;23.90;91.60;;;;;;6231388;28;84118;-70
2023/07/31 13:46:56;;;;;;;2.60;2.05;;;23.90;91.60;;;;;;6226928;27;83515;-70
2023/07/31 13:49:58;;;;;;;3.15;2.20;;;23.90;91.60;;;;;;6241469;27;83996;-70
2023/07/31 13:53:00;;;;;;;4.38;2.47;;;23.90;91.50;;;;;;6245157;28;82985;-70
2023/07/31 13:56:04;;;;;;;5.38;2.70;;;23.90;91.60;;;;;;6219997;28;83910;-70
2023/07/31 13:59:07;;;;;;;3.85;2.38;;;23.90;91.50;;;;;;6249629;27;83693;-70
2023/07/31 14:02:09;;;;;;;3.70;2.60;;;24.00;91.40;;;;;;6233288;28;83306;-70
2023/07/31 14:05:11;;;;;;;4.00;2.10;;;23.90;91.40;;;;;;6223203;28;84138;-70
2023/07/31 14:08:13;;;;;;;3.00;2.17;;;23.90;91.20;;;;;;6217253;28;84261;-70
2023/07/31 14:11:17;;;;;;;3.35;2.33;;;23.90;91.10;;;;;;6237411;28;83916;-71
2023/07/31 14:14:19;;;;;;;3.83;2.30;;;23.90;91.10;;;;;;6238685;27;84047;-71
2023/07/31 14:17:21;;;;;;;3.97;2.53;;;24.00;91.20;;;;;;6227936;28;83391;-71
2023/07/31 14:20:23;;;;;;;5.53;3.08;;;23.90;91.30;;;;;;6231966;28;83930;-71
2023/07/31 14:23:25;;;;;;;3.88;2.30;;;23.90;91.30;;;;;;6222739;28;84013;-70
2023/07/31 14:26:28;;;;;;;6.50;3.20;;;23.90;91.30;;;;;;6234799;28;85211;-71
2023/07/31 14:29:31;;;;;;;8.40;3.65;;;23.90;91.40;;;;;;6220585;27;84052;-70
2023/07/31 14:32:33;;;;;;;4.07;2.20;;;24.00;91.60;;;;;;6240835;28;84315;-71
2023/07/31 14:35:35;;;;;;;2.40;2.20;;;24.00;91.70;;;;;;6232076;28;86166;-71
2023/07/31 14:38:37;;;;;;;2.70;2.15;;;23.90;91.60;;;;;;6232623;28;84011;-70
2023/07/31 14:41:40;;;;;;;2.90;2.22;;;24.00;91.80;;;;;;6223437;28;84534;-70
2023/07/31 14:44:42;;;;;;;4.53;2.30;;;24.00;91.80;;;;;;6236859;28;84319;-71
2023/07/31 14:47:44;;;;;;;3.80;2.58;;;23.90;91.80;;;;;;6227065;28;82780;-70
2023/07/31 14:50:46;;;;;;;3.35;2.35;;;23.90;91.70;;;;;;6241307;28;83805;-70
2023/07/31 14:53:48;;;;;;;4.07;2.60;;;23.90;91.60;;;;;;6217420;27;84316;-70
2023/07/31 14:56:52;;;;;;;4.65;2.72;;;24.00;91.50;;;;;;6232106;27;85278;-70
2023/07/31 14:59:54;;;;;;;2.35;2.00;;;24.00;91.40;;;;;;6234541;27;84020;-70
2023/07/31 15:02:56;;;;;;;2.65;2.30;;;24.00;91.40;;;;;;6241128;28;84242;-70
2023/07/31 15:05:58;;;;;;;2.47;1.92;;;23.90;91.30;;;;;;6239996;28;84142;-70
2023/07/31 15:09:00;;;;;;;2.88;2.30;;;23.90;91.30;;;;;;6234774;28;84370;-71
2023/07/31 15:12:03;;;;;;;5.20;2.88;;;24.00;91.10;;;;;;6230317;28;83751;-70
2023/07/31 15:15:07;;;;;;;4.07;2.35;;;24.00;91.00;;;;;;6232994;28;84093;-70
2023/07/31 15:18:09;;;;;;;4.30;2.60;;;23.90;90.80;;;;;;6240584;28;83130;-70
2023/07/31 15:21:11;;;;;;;5.32;2.60;;;24.00;90.30;;;;;;6234337;28;84286;-69
2023/07/31 15:24:13;;;;;;;3.63;2.45;;;23.90;90.20;;;;;;6232871;28;84116;-70
2023/07/31 15:27:16;;;;;;;3.42;2.35;;;24.00;90.60;;;;;;6235055;28;85278;-70
2023/07/31 15:30:18;;;;;;;4.68;2.60;;;23.90;91.00;;;;;;6228191;27;83952;-69
2023/07/31 15:33:21;;;;;;;4.05;2.30;;;23.90;91.20;;;;;;6232356;27;84094;-71
2023/07/31 15:36:23;;;;;;;3.35;2.33;;;23.90;91.60;;;;;;6223567;28;84089;-70
2023/07/31 15:39:25;;;;;;;8.13;3.58;;;24.00;91.70;;;;;;6238897;28;83941;-71
2023/07/31 15:42:28;;;;;;;4.07;2.50;;;24.00;91.80;;;;;;6234483;28;83873;-70
2023/07/31 15:45:31;;;;;;;4.38;2.58;;;24.00;91.80;;;;;;6223182;28;82890;-71
2023/07/31 15:48:33;;;;;;;3.35;2.42;;;24.00;91.80;;;;;;6236105;28;83765;-70
2023/07/31 15:51:35;;;;;;;4.00;2.67;;;24.00;91.70;;;;;;6234868;28;84300;-69
2023/07/31 15:54:37;;;;;;;2.88;2.17;;;24.00;91.70;;;;;;6233066;28;84705;-70
2023/07/31 15:57:40;;;;;;;2.72;2.15;;;24.00;91.70;;;;;;6234709;28;85159;-70
2023/07/31 16:00:42;;;;;;;2.22;2.03;;;24.00;91.70;;;;;;6235768;28;84066;-69
2023/07/31 16:03:44;;;;;;;3.50;2.35;;;24.00;91.70;;;;;;6232563;28;83931;-70
2023/07/31 16:06:46;;;;;;;5.70;2.95;;;24.00;91.80;;;;;;6234651;28;83168;-69
2023/07/31 16:09:48;;;;;;;3.85;2.50;;;24.00;91.80;;;;;;6232769;28;84050;-70
2023/07/31 16:12:52;;;;;;;3.03;2.47;;;24.00;91.60;;;;;;6233743;28;84959;-70
2023/07/31 16:15:54;;;;;;;7.35;3.22;;;24.00;91.70;;;;;;6226155;28;84108;-70
2023/07/31 16:18:56;;;;;;;4.38;2.65;;;24.10;91.90;;;;;;6227712;28;83319;-70
2023/07/31 16:21:59;;;;;;;2.97;2.25;;;24.00;92.10;;;;;;6229777;28;84018;-71
2023/07/31 16:25:01;;;;;;;2.65;2.30;;;24.00;92.10;;;;;;6237989;28;84106;-71
2023/07/31 16:28:04;;;;;;;5.68;2.90;;;24.00;92.10;;;;;;6255778;27;85201;-71
2023/07/31 16:31:06;;;;;;;4.60;2.90;;;24.00;92.30;;;;;;6248519;28;84004;-70
2023/07/31 16:34:10;;;;;;;3.00;2.33;;;24.00;92.20;;;;;;6237438;28;84029;-71
2023/07/31 16:37:12;;;;;;;3.33;2.53;;;24.00;92.40;;;;;;6210634;28;86481;-71
2023/07/31 16:40:14;;;;;;;3.83;2.60;;;24.00;92.20;;;;;;6235398;28;83966;-71
2023/07/31 16:43:19;;;;;;;3.53;2.80;;;24.00;92.10;;;;;;6253445;27;84182;-71
2023/07/31 16:46:21;;;;;;;4.30;2.60;;;24.00;92.10;;;;;;6234336;28;84307;-71
2023/07/31 16:49:23;;;;;;;3.08;2.25;;;24.00;92.40;;;;;;6239729;28;82171;-71
2023/07/31 16:52:25;;;;;;;2.30;2.10;;;24.00;92.30;;;;;;6232603;27;84280;-71
2023/07/31 16:55:28;;;;;;;4.95;2.88;;;24.00;92.30;;;;;;6249399;27;83667;-71
2023/07/31 16:58:31;;;;;;;3.20;2.60;;;24.00;92.10;;;;;;6223571;28;84923;-71
2023/07/31 17:01:33;;;;;;;2.90;2.47;;;24.00;92.60;;;;;;6258468;27;84172;-71
2023/07/31 17:04:35;;;;;;;2.70;2.30;;;24.00;92.50;;;;;;6235126;28;82863;-71
2023/07/31 17:07:37;;;;;;;3.47;2.40;;;24.00;92.60;;;;;;6234331;28;83877;-71
2023/07/31 17:10:39;;;;;;;3.33;2.50;;;24.00;92.70;;;;;;6245414;28;84242;-71
2023/07/31 17:13:42;;;;;;;3.55;2.60;;;24.10;92.40;;;;;;6224499;28;84127;-71
2023/07/31 17:16:44;;;;;;;3.42;2.63;;;24.00;92.40;;;;;;6234691;28;84267;-71
2023/07/31 17:19:46;;;;;;;2.58;2.33;;;24.00;92.40;;;;;;6247091;28;82279;-71
2023/07/31 17:22:48;;;;;;;2.38;2.15;;;24.00;92.20;;;;;;6237919;27;84527;-71
2023/07/31 17:25:51;;;;;;;3.63;2.60;;;24.00;92.00;;;;;;6232920;28;83834;-70
2023/07/31 17:28:55;;;;;;;2.78;2.17;;;24.00;91.90;;;;;;6233321;28;84320;-71
2023/07/31 17:31:58;;;;;;;2.60;2.30;;;24.00;92.00;;;;;;6233335;28;83776;-70
2023/07/31 17:35:01;;;;;;;3.67;2.55;;;24.00;92.00;;;;;;6233699;28;82971;-71
2023/07/31 17:38:05;;;;;;;2.90;2.38;;;24.00;92.20;;;;;;6233135;28;83206;-70
2023/07/31 17:41:09;;;;;;;3.63;2.35;;;24.00;92.40;;;;;;6219990;28;83012;-70
2023/07/31 17:44:14;;;;;;;5.65;3.20;;;24.00;92.60;;;;;;6235522;28;83660;-71
2023/07/31 17:47:18;;;;;;;5.22;2.80;;;24.00;92.60;;;;;;6257377;27;82684;-71
2023/07/31 17:50:22;;;;;;;2.88;2.35;;;24.00;92.70;;;;;;6238987;27;82429;-71
2023/07/31 17:53:25;;;;;;;3.42;2.25;;;24.00;92.70;;;;;;6245605;27;82908;-70
2023/07/31 17:56:31;;;;;;;3.08;2.38;;;24.00;92.50;;;;;;6246252;28;83033;-71
2023/07/31 17:59:36;;;;;;;3.42;2.45;;;23.90;92.60;;;;;;6240906;28;84073;-71
2023/07/31 18:02:40;;;;;;;2.65;2.17;;;24.00;92.70;;;;;;6234618;27;83897;-71
2023/07/31 18:05:43;;;;;;;2.33;2.10;;;24.00;92.80;;;;;;6232459;28;82993;-71
2023/07/31 18:08:47;;;;;;;3.85;2.67;;;24.00;92.80;;;;;;6220554;28;84085;-71
2023/07/31 18:11:52;;;;;;;3.33;2.53;;;23.90;92.50;;;;;;6220903;28;82092;-71
2023/07/31 18:14:57;;;;;;;3.15;2.58;;;24.00;92.50;;;;;;6221807;28;82720;-70
2023/07/31 18:18:01;;;;;;;3.53;2.53;;;24.00;92.50;;;;;;6227011;28;84790;-71
2023/07/31 18:21:05;;;;;;;3.80;2.90;;;24.00;92.60;;;;;;6242290;27;82187;-71
2023/07/31 18:24:09;;;;;;;3.78;2.70;;;24.00;92.90;;;;;;6220485;28;83336;-71
2023/07/31 18:27:14;;;;;;;3.47;2.72;;;24.00;92.50;;;;;;6232642;28;82968;-71
2023/07/31 18:30:19;;;;;;;3.00;2.70;;;24.00;92.80;;;;;;6232436;28;83728;-71
2023/07/31 18:33:22;;;;;;;3.50;2.78;;;24.00;92.90;;;;;;6235730;28;82624;-71
2023/07/31 18:36:26;;;;;;;3.33;2.58;;;24.00;93.00;;;;;;6237232;28;82774;-71
2023/07/31 18:39:30;;;;;;;2.60;2.30;;;24.00;93.00;;;;;;6239411;28;83049;-70
2023/07/31 18:42:35;;;;;;;7.55;3.65;;;24.00;93.00;;;;;;6231647;27;81962;-71
2023/07/31 18:45:40;;;;;;;5.65;3.50;;;24.00;93.20;;;;;;6237134;28;82788;-70
2023/07/31 18:48:44;;;;;;;3.42;2.72;;;24.00;93.10;;;;;;6225183;28;83544;-71
2023/07/31 18:51:47;;;;;;;3.78;2.70;;;24.00;93.10;;;;;;6211985;28;81223;-70
2023/07/31 18:54:51;;;;;;;3.20;2.55;;;23.90;93.00;;;;;;6233959;28;83257;-70
2023/07/31 18:57:55;;;;;;;3.67;2.78;;;24.00;93.00;;;;;;6235410;28;83010;-70
2023/07/31 19:01:00;;;;;;;5.38;3.22;;;24.00;93.10;;;;;;6233780;28;84217;-70
2023/07/31 19:04:04;;;;;;;3.65;2.92;;;24.00;93.20;;;;;;6217348;28;83066;-70
2023/07/31 19:07:08;;;;;;;5.45;3.38;;;24.00;93.20;;;;;;6230857;28;83098;-70
2023/07/31 19:10:12;;;;;;;4.32;3.08;;;24.00;93.20;;;;;;6231212;28;82076;-70
2023/07/31 19:13:15;;;;;;;3.92;2.83;;;24.10;93.30;;;;;;6227691;28;83168;-70
2023/07/31 19:16:21;;;;;;;3.00;2.60;;;24.10;93.40;;;;;;6223531;28;82984;-70
2023/07/31 19:19:24;;;;;;;3.50;2.88;;;24.00;93.40;;;;;;6228634;28;82791;-70
2023/07/31 19:22:28;;;;;;;3.88;3.00;;;24.10;93.40;;;;;;6233918;28;81319;-71
2023/07/31 19:25:31;;;;;;;4.30;2.83;;;24.10;93.50;;;;;;6226364;28;85297;-70
2023/07/31 19:28:35;;;;;;;3.55;2.70;;;24.10;93.50;;;;;;6233566;28;82717;-69
2023/07/31 19:31:42;;;;;;;4.50;2.88;;;24.10;93.50;;;;;;6233075;28;83832;-69
2023/07/31 19:34:45;;;;;;;3.83;2.80;;;24.10;93.50;;;;;;6236350;28;82766;-69
2023/07/31 19:37:49;;;;;;;4.97;3.30;;;24.10;93.60;;;;;;6254729;27;82973;-69
2023/07/31 19:40:53;;;;;;;4.35;2.90;;;24.00;93.70;;;;;;6227226;27;82439;-70
2023/07/31 19:43:56;;;;;;;3.30;2.85;;;24.10;93.80;;;;;;6217938;28;82808;-70
2023/07/31 19:47:02;;;;;;;5.00;2.95;;;24.10;93.90;;;;;;6233271;28;82987;-69
2023/07/31 19:50:06;;;;;;;4.40;3.22;;;24.10;94.00;;;;;;6222230;28;83312;-69
2023/07/31 19:53:10;;;;;;;3.55;2.55;;;24.10;94.20;;;;;;6233583;28;82308;-70